Auburn, Illinois
Current Conditions -  °F | °C
As of 7:52 AM on Wednesday 26 Nov 2014 (Local Time) from KSPI Reporting Station
Clear Clear  
Wind Chill: 19°   Ceiling: Unl
Heat Index: 28°   Visibility: 10mi
Dew Point: 25°   Wind: 10mph
Humidity: 88%   Direction: 130°SE
Pressure: 30.09"   Gusts: NA
Location:  39.59°N, 89.75°W
Report Text: KSPI 261352Z 13009KT 10SM CLR M02/M04 A3009 RMK AO2 SLP197 T10221039
Loading
Personal Weather Stations






























Interactive Weather Map New forecast layout! Learn more

10-Day Weather Forecast

Advertisements
Track Severe Weather on mobile